Time;durP1;ratioP1;P1;durP2;ratioP2;P2;SDS_P1;SDS_P2;PMS_P1;PMS_P2;Temp;Humidity;BMP_temperature;BMP_pressure;BME280_temperature;BME280_humidity;BME280_pressure;Samples;Min_cycle;Max_cycle;Signal;HPM_P1;HPM_P2
2021/12/04 00:00:21;;;;;;;7.53;1.80;;;;;;;;;;4992569;28;20420;-74
2021/12/04 00:02:47;;;;;;;7.93;2.17;;;;;;;;;;4992589;28;20201;-74
2021/12/04 00:05:13;;;;;;;4.38;1.58;;;;;;;;;;4996773;28;20205;-74
2021/12/04 00:07:39;;;;;;;10.63;1.60;;;;;;;;;;4997364;28;20174;-75
2021/12/04 00:10:06;;;;;;;8.15;2.67;;;;;;;;;;4996833;28;20196;-74
2021/12/04 00:12:33;;;;;;;6.28;1.67;;;;;;;;;;4996657;28;20217;-74
2021/12/04 00:15:00;;;;;;;12.83;1.90;;;;;;;;;;4996797;28;20644;-74
2021/12/04 00:17:26;;;;;;;6.35;2.22;;;;;;;;;;4997091;28;20441;-74
2021/12/04 00:19:52;;;;;;;5.07;1.77;;;;;;;;;;4996955;28;20185;-74
2021/12/04 00:22:18;;;;;;;6.60;2.17;;;;;;;;;;4997259;28;20565;-74
2021/12/04 00:24:44;;;;;;;5.00;1.70;;;;;;;;;;4996698;28;20516;-74
2021/12/04 00:27:10;;;;;;;14.17;3.03;;;;;;;;;;4996186;28;20200;-74
2021/12/04 00:29:36;;;;;;;8.20;2.47;;;;;;;;;;4996711;28;20428;-74
2021/12/04 00:32:10;;;;;;;6.53;1.95;;;;;;;;;;4996710;28;20446;-74
2021/12/04 00:34:41;;;;;;;5.65;1.85;;;;;;;;;;4996391;28;20540;-74
2021/12/04 00:37:19;;;;;;;10.38;2.63;;;;;;;;;;4996876;28;20283;-77
2021/12/04 00:50:44;;;;;;;8.00;2.00;;;;;;;;;;4996753;28;20265;-77
2021/12/04 00:53:10;;;;;;;7.10;2.50;;;;;;;;;;4996210;28;20252;-77
2021/12/04 00:55:36;;;;;;;5.97;2.17;;;;;;;;;;5005157;28;20431;-77
2021/12/04 00:58:03;;;;;;;9.37;3.00;;;;;;;;;;4997557;28;20176;-77
2021/12/04 01:00:29;;;;;;;7.93;2.17;;;;;;;;;;4996105;28;20478;-77
2021/12/04 01:02:55;;;;;;;4.82;1.73;;;;;;;;;;4996083;28;20637;-77
2021/12/04 01:05:21;;;;;;;8.18;2.38;;;;;;;;;;4995974;28;20189;-76
2021/12/04 01:07:48;;;;;;;5.90;1.87;;;;;;;;;;4996284;28;20174;-74
2021/12/04 01:10:14;;;;;;;5.32;1.83;;;;;;;;;;4996185;28;20431;-74
2021/12/04 01:12:40;;;;;;;12.32;3.13;;;;;;;;;;4995770;28;20360;-74
2021/12/04 01:15:07;;;;;;;3.08;1.35;;;;;;;;;;4994364;28;20181;-74
2021/12/04 01:17:33;;;;;;;11.50;2.85;;;;;;;;;;4996029;28;20540;-74
2021/12/04 01:19:59;;;;;;;9.05;2.63;;;;;;;;;;4996006;28;20205;-74
2021/12/04 01:22:26;;;;;;;9.35;2.60;;;;;;;;;;4995906;28;20197;-74
2021/12/04 01:24:52;;;;;;;23.67;3.13;;;;;;;;;;4995535;28;20174;-74
2021/12/04 01:27:18;;;;;;;9.55;2.13;;;;;;;;;;4995607;28;20633;-74
2021/12/04 01:29:44;;;;;;;11.50;3.10;;;;;;;;;;4995289;28;20256;-74
2021/12/04 01:32:10;;;;;;;9.53;2.40;;;;;;;;;;4995604;28;20417;-74
2021/12/04 01:34:37;;;;;;;17.42;4.03;;;;;;;;;;4995430;28;20409;-74
2021/12/04 01:37:04;;;;;;;12.38;2.80;;;;;;;;;;4995295;28;20178;-74
2021/12/04 01:39:31;;;;;;;8.77;2.47;;;;;;;;;;4995920;28;20255;-77
2021/12/04 01:41:57;;;;;;;10.38;3.00;;;;;;;;;;4995170;28;20198;-77
2021/12/04 01:44:23;;;;;;;9.70;2.78;;;;;;;;;;4995276;28;20174;-77
2021/12/04 01:46:55;;;;;;;27.23;4.23;;;;;;;;;;4995189;28;20550;-77
2021/12/04 01:49:21;;;;;;;8.07;2.35;;;;;;;;;;4995334;28;20432;-77
2021/12/04 01:51:47;;;;;;;4.45;1.70;;;;;;;;;;4995278;28;20622;-77
2021/12/04 01:54:13;;;;;;;9.37;2.53;;;;;;;;;;4994879;28;20213;-74
2021/12/04 01:56:39;;;;;;;6.03;1.77;;;;;;;;;;4996447;28;20428;-74
2021/12/04 01:59:05;;;;;;;10.17;2.63;;;;;;;;;;4995023;28;20559;-74
2021/12/04 02:01:33;;;;;;;7.70;2.57;;;;;;;;;;4994945;28;20818;-74
2021/12/04 02:03:59;;;;;;;7.68;2.78;;;;;;;;;;4988414;28;20932;-74
2021/12/04 02:06:25;;;;;;;8.83;2.90;;;;;;;;;;4995133;28;20193;-74
2021/12/04 02:08:51;;;;;;;9.33;2.63;;;;;;;;;;4995013;28;20531;-74
2021/12/04 02:11:17;;;;;;;5.07;1.70;;;;;;;;;;4995318;28;20425;-74
2021/12/04 02:13:43;;;;;;;13.32;2.92;;;;;;;;;;4993966;28;20184;-74
2021/12/04 02:16:20;;;;;;;8.25;2.63;;;;;;;;;;4994550;28;20235;-74
2021/12/04 02:18:46;;;;;;;5.07;1.88;;;;;;;;;;4994528;28;20184;-74
2021/12/04 02:21:13;;;;;;;4.63;2.30;;;;;;;;;;4994551;28;20208;-74
2021/12/04 02:23:39;;;;;;;11.93;3.70;;;;;;;;;;4994724;28;20248;-74
2021/12/04 02:26:05;;;;;;;12.03;2.93;;;;;;;;;;4994324;28;20621;-74
2021/12/04 02:28:31;;;;;;;15.05;3.40;;;;;;;;;;4994345;28;20892;-74
2021/12/04 02:30:57;;;;;;;5.35;2.25;;;;;;;;;;4994715;28;20185;-74
2021/12/04 02:33:23;;;;;;;7.05;2.42;;;;;;;;;;4994468;28;20253;-74
2021/12/04 02:35:52;;;;;;;7.00;2.38;;;;;;;;;;4993821;28;20170;-74
2021/12/04 02:38:22;;;;;;;12.35;3.85;;;;;;;;;;4994549;28;20688;-77
2021/12/04 02:40:49;;;;;;;5.30;2.05;;;;;;;;;;4994166;28;20369;-77
2021/12/04 02:43:15;;;;;;;8.75;3.10;;;;;;;;;;4994363;28;20532;-77
2021/12/04 02:45:42;;;;;;;7.60;3.27;;;;;;;;;;4993611;28;20177;-77
2021/12/04 02:48:08;;;;;;;9.82;3.63;;;;;;;;;;4994350;28;20413;-77
2021/12/04 02:50:34;;;;;;;10.67;4.30;;;;;;;;;;4994353;28;20177;-77
2021/12/04 02:53:00;;;;;;;6.20;3.13;;;;;;;;;;4993417;28;20444;-77
2021/12/04 02:55:27;;;;;;;8.57;3.03;;;;;;;;;;4994433;28;20208;-77
2021/12/04 02:57:53;;;;;;;10.40;3.38;;;;;;;;;;4994086;28;20174;-77
2021/12/04 03:00:23;;;;;;;6.57;2.88;;;;;;;;;;4994083;28;20181;-77
2021/12/04 03:02:49;;;;;;;5.30;1.70;;;;;;;;;;4993495;28;20201;-77
2021/12/04 03:05:22;;;;;;;16.50;4.60;;;;;;;;;;4991935;28;20209;-77
2021/12/04 03:07:48;;;;;;;7.22;3.47;;;;;;;;;;4993449;28;20165;-77
2021/12/04 03:10:14;;;;;;;17.13;4.57;;;;;;;;;;4994024;28;20264;-77
2021/12/04 03:12:41;;;;;;;5.70;2.00;;;;;;;;;;4993818;28;20929;-77
2021/12/04 03:15:08;;;;;;;12.35;3.55;;;;;;;;;;4993519;28;20185;-77
2021/12/04 03:17:34;;;;;;;4.32;1.40;;;;;;;;;;4993684;28;20587;-77
2021/12/04 03:20:01;;;;;;;17.27;4.22;;;;;;;;;;4993031;28;20181;-77
2021/12/04 03:22:27;;;;;;;7.38;3.00;;;;;;;;;;4993490;28;20524;-77
2021/12/04 03:24:56;;;;;;;9.82;4.03;;;;;;;;;;4993747;28;20383;-74
2021/12/04 03:27:22;;;;;;;9.68;3.70;;;;;;;;;;4993474;28;20184;-74
2021/12/04 03:30:00;;;;;;;17.50;4.80;;;;;;;;;;4993286;28;20577;-74
2021/12/04 03:40:57;;;;;;;7.07;3.10;;;;;;;;;;4952648;29;20209;-74
2021/12/04 03:43:23;;;;;;;23.67;4.53;;;;;;;;;;4950226;29;20173;-74
2021/12/04 03:45:55;;;;;;;10.30;4.35;;;;;;;;;;4945941;29;20266;-74
2021/12/04 03:50:58;;;;;;;17.90;5.47;;;;;;;;;;4952264;29;20178;-75
2021/12/04 03:53:24;;;;;;;12.20;4.78;;;;;;;;;;4937675;29;20191;-74
2021/12/04 03:55:50;;;;;;;10.20;4.30;;;;;;;;;;4940225;29;20187;-74
2021/12/04 03:58:17;;;;;;;9.70;4.38;;;;;;;;;;4939304;29;20210;-75
2021/12/04 04:00:43;;;;;;;13.07;4.30;;;;;;;;;;4933076;29;20663;-75
2021/12/04 04:03:09;;;;;;;12.27;3.85;;;;;;;;;;4932996;29;20180;-75
2021/12/04 04:05:35;;;;;;;14.32;4.63;;;;;;;;;;4932588;29;20191;-74
2021/12/04 04:08:01;;;;;;;7.50;2.77;;;;;;;;;;4936148;29;20191;-74
2021/12/04 04:10:27;;;;;;;8.60;3.25;;;;;;;;;;4948164;29;20430;-74
2021/12/04 04:12:53;;;;;;;7.63;2.90;;;;;;;;;;4954322;28;20251;-75
2021/12/04 04:15:21;;;;;;;8.75;3.90;;;;;;;;;;4989182;28;20260;-75
2021/12/04 04:17:47;;;;;;;9.20;2.33;;;;;;;;;;4992420;28;20711;-75
2021/12/04 04:20:14;;;;;;;9.00;2.58;;;;;;;;;;4992611;28;20174;-74
2021/12/04 04:22:40;;;;;;;10.05;3.97;;;;;;;;;;4992901;28;20201;-75
2021/12/04 04:25:07;;;;;;;12.02;3.90;;;;;;;;;;4992803;28;20182;-74
2021/12/04 04:27:33;;;;;;;11.35;4.45;;;;;;;;;;4993124;28;20178;-74
2021/12/04 04:29:59;;;;;;;7.72;2.65;;;;;;;;;;4992606;28;20206;-74
2021/12/04 04:32:26;;;;;;;8.30;3.03;;;;;;;;;;4992858;28;20177;-74
2021/12/04 04:34:54;;;;;;;19.50;4.82;;;;;;;;;;4992200;28;20185;-74
2021/12/04 04:37:34;;;;;;;6.53;2.70;;;;;;;;;;4983765;28;20184;-74
2021/12/04 04:57:32;;;;;;;13.77;4.38;;;;;;;;;;4992659;28;20232;-74
2021/12/04 05:00:14;;;;;;;9.82;3.00;;;;;;;;;;4995969;28;20548;-77
2021/12/04 05:02:28;;;;;;;23.02;4.75;;;;;;;;;;4995124;28;20209;-78
2021/12/04 05:13:00;;;;;;;12.80;3.85;;;;;;;;;;4984780;28;20472;-77
2021/12/04 05:15:43;;;;;;;16.05;3.65;;;;;;;;;;4995804;28;20180;-77
2021/12/04 05:18:32;;;;;;;5.70;2.08;;;;;;;;;;4996032;28;20182;-77
2021/12/04 05:21:06;;;;;;;5.97;2.53;;;;;;;;;;4995357;28;20197;-77
2021/12/04 05:23:34;;;;;;;9.63;3.97;;;;;;;;;;4995719;28;20264;-77
2021/12/04 05:26:00;;;;;;;11.07;3.72;;;;;;;;;;4995988;28;20178;-74
2021/12/04 05:28:26;;;;;;;8.10;3.90;;;;;;;;;;4995224;28;20186;-74
2021/12/04 05:30:52;;;;;;;15.40;4.28;;;;;;;;;;4995409;28;20252;-74
2021/12/04 05:33:18;;;;;;;12.20;4.75;;;;;;;;;;4995112;28;20657;-74
2021/12/04 05:35:48;;;;;;;8.50;4.10;;;;;;;;;;4995760;28;20182;-74
2021/12/04 05:38:14;;;;;;;7.70;3.00;;;;;;;;;;4994807;28;20932;-74
2021/12/04 05:40:40;;;;;;;8.45;3.17;;;;;;;;;;4995652;28;20539;-74
2021/12/04 05:43:06;;;;;;;9.25;2.88;;;;;;;;;;4994561;28;20683;-74
2021/12/04 05:45:38;;;;;;;25.48;3.15;;;;;;;;;;4995542;28;20181;-74
2021/12/04 05:53:25;;;;;;;16.02;5.05;;;;;;;;;;4993260;28;20629;-74
2021/12/04 05:55:55;;;;;;;8.93;3.63;;;;;;;;;;4993557;28;20176;-77
2021/12/04 05:58:21;;;;;;;7.45;3.63;;;;;;;;;;4993509;28;20537;-77
2021/12/04 06:00:47;;;;;;;10.98;3.95;;;;;;;;;;4994343;28;20232;-77
2021/12/04 06:03:14;;;;;;;9.15;4.53;;;;;;;;;;4994803;28;20256;-77
2021/12/04 06:05:40;;;;;;;7.85;4.03;;;;;;;;;;4995247;28;20519;-77
2021/12/04 06:08:06;;;;;;;7.18;3.35;;;;;;;;;;4992183;28;20616;-83
2021/12/04 06:10:32;;;;;;;14.47;4.00;;;;;;;;;;4994165;28;20280;-77
2021/12/04 06:12:58;;;;;;;6.07;3.33;;;;;;;;;;4994709;28;20436;-77
2021/12/04 06:15:23;;;;;;;18.93;5.77;;;;;;;;;;4991313;28;20425;-76
2021/12/04 06:17:53;;;;;;;17.33;4.40;;;;;;;;;;4994024;28;20460;-76
2021/12/04 06:23:03;;;;;;;12.38;2.50;;;;;;;;;;4994628;28;20207;-77
2021/12/04 06:25:41;;;;;;;10.32;3.70;;;;;;;;;;4995225;28;20646;-79
2021/12/04 06:28:08;;;;;;;8.80;3.03;;;;;;;;;;4992719;28;21775;-77
2021/12/04 06:30:36;;;;;;;9.95;3.53;;;;;;;;;;4994372;28;20178;-77
2021/12/04 06:33:04;;;;;;;28.75;6.43;;;;;;;;;;4993174;28;20205;-76
2021/12/04 06:35:31;;;;;;;19.63;4.72;;;;;;;;;;4993777;28;20201;-77
2021/12/04 06:37:57;;;;;;;16.02;4.93;;;;;;;;;;4992697;28;20196;-77
2021/12/04 06:40:26;;;;;;;15.50;4.30;;;;;;;;;;4994150;28;20181;-76
2021/12/04 06:42:53;;;;;;;10.02;4.00;;;;;;;;;;4993711;28;20203;-77
2021/12/04 06:45:19;;;;;;;10.43;4.25;;;;;;;;;;4993690;28;20703;-77
2021/12/04 06:47:54;;;;;;;17.45;4.15;;;;;;;;;;4992975;28;20265;-77
2021/12/04 06:50:44;;;;;;;12.98;4.35;;;;;;;;;;4992850;28;20173;-76
2021/12/04 06:55:48;;;;;;;6.00;2.50;;;;;;;;;;4993258;28;20221;-76
2021/12/04 06:58:14;;;;;;;26.60;5.30;;;;;;;;;;4992762;28;20267;-77
2021/12/04 07:00:40;;;;;;;8.35;3.30;;;;;;;;;;4992710;28;20170;-78
2021/12/04 07:03:07;;;;;;;15.27;4.15;;;;;;;;;;4991764;28;20185;-78
2021/12/04 07:05:33;;;;;;;7.75;3.83;;;;;;;;;;4993906;28;20180;-77
2021/12/04 07:07:59;;;;;;;16.40;4.85;;;;;;;;;;4993486;28;20174;-75
2021/12/04 07:10:25;;;;;;;10.20;2.95;;;;;;;;;;4993648;28;20704;-73
2021/12/04 07:12:51;;;;;;;20.40;4.68;;;;;;;;;;4992242;28;20673;-76
2021/12/04 07:15:18;;;;;;;7.25;2.78;;;;;;;;;;4993566;28;20231;-77
2021/12/04 07:17:44;;;;;;;10.98;3.33;;;;;;;;;;4993260;28;20220;-76
2021/12/04 07:20:10;;;;;;;10.07;3.63;;;;;;;;;;4992931;28;20957;-76
2021/12/04 07:22:36;;;;;;;14.35;4.80;;;;;;;;;;4992676;28;20452;-76
2021/12/04 07:25:04;;;;;;;14.77;4.55;;;;;;;;;;4993082;28;20265;-76
2021/12/04 07:27:30;;;;;;;21.48;5.00;;;;;;;;;;4993914;28;20185;-73
2021/12/04 07:29:57;;;;;;;8.68;2.50;;;;;;;;;;4992340;28;20254;-73
2021/12/04 07:32:25;;;;;;;11.15;3.35;;;;;;;;;;4992193;28;20592;-74
2021/12/04 07:34:51;;;;;;;6.20;3.45;;;;;;;;;;4993668;28;20261;-74
2021/12/04 07:37:17;;;;;;;11.30;3.45;;;;;;;;;;4993347;28;20649;-74
2021/12/04 07:39:43;;;;;;;15.80;5.03;;;;;;;;;;4992064;28;20185;-73
2021/12/04 07:42:09;;;;;;;17.42;4.60;;;;;;;;;;4993589;28;20719;-73
2021/12/04 07:44:35;;;;;;;10.93;3.25;;;;;;;;;;4992571;28;20181;-73
2021/12/04 07:47:02;;;;;;;8.80;2.67;;;;;;;;;;4992711;28;20257;-73
2021/12/04 07:49:28;;;;;;;9.40;3.20;;;;;;;;;;4994003;28;20170;-73
2021/12/04 07:51:54;;;;;;;12.15;5.25;;;;;;;;;;4993910;28;20181;-73
2021/12/04 07:54:20;;;;;;;13.05;4.03;;;;;;;;;;4993856;28;20204;-73
2021/12/04 07:56:46;;;;;;;18.03;5.10;;;;;;;;;;4994718;28;20181;-73
2021/12/04 07:59:12;;;;;;;15.60;5.18;;;;;;;;;;4991473;28;20783;-73
2021/12/04 08:01:38;;;;;;;18.40;5.65;;;;;;;;;;4993605;28;20659;-73
2021/12/04 08:04:05;;;;;;;9.95;3.53;;;;;;;;;;4993780;28;20252;-73
2021/12/04 08:06:35;;;;;;;11.57;3.42;;;;;;;;;;4993652;28;20633;-73
2021/12/04 08:09:02;;;;;;;9.10;3.92;;;;;;;;;;4993914;28;20174;-73
2021/12/04 08:11:28;;;;;;;8.10;2.85;;;;;;;;;;4993552;28;20177;-76
2021/12/04 08:13:55;;;;;;;5.78;2.55;;;;;;;;;;4993941;28;20232;-76
2021/12/04 08:16:24;;;;;;;12.95;3.03;;;;;;;;;;4993373;28;20181;-76
2021/12/04 08:18:52;;;;;;;7.93;2.80;;;;;;;;;;4993392;28;20197;-76
2021/12/04 08:21:18;;;;;;;12.45;2.65;;;;;;;;;;4993474;28;20690;-76
2021/12/04 08:23:48;;;;;;;10.98;2.90;;;;;;;;;;4995399;28;20181;-76
2021/12/04 08:26:15;;;;;;;6.75;2.83;;;;;;;;;;4997724;28;20201;-73
2021/12/04 08:28:41;;;;;;;6.88;2.67;;;;;;;;;;4997564;28;20205;-76
2021/12/04 08:31:08;;;;;;;12.40;2.50;;;;;;;;;;4997032;28;20213;-76
2021/12/04 08:33:34;;;;;;;13.50;4.18;;;;;;;;;;4997428;28;20186;-75
2021/12/04 08:36:03;;;;;;;8.52;3.30;;;;;;;;;;4997487;28;20182;-76
2021/12/04 08:38:30;;;;;;;8.35;3.13;;;;;;;;;;4997426;28;20178;-76
2021/12/04 08:40:56;;;;;;;9.93;2.65;;;;;;;;;;4997159;28;20203;-76
2021/12/04 08:43:22;;;;;;;7.78;2.53;;;;;;;;;;4997562;28;20694;-73
2021/12/04 08:45:49;;;;;;;14.02;3.92;;;;;;;;;;4996151;28;20176;-73
2021/12/04 08:48:15;;;;;;;30.13;2.92;;;;;;;;;;4987502;28;20301;-73
2021/12/04 08:50:41;;;;;;;11.25;3.92;;;;;;;;;;4997312;28;20323;-73
2021/12/04 08:53:08;;;;;;;7.18;2.75;;;;;;;;;;4996913;28;20184;-73
2021/12/04 08:55:38;;;;;;;10.93;3.72;;;;;;;;;;5005496;28;20267;-73
2021/12/04 08:58:05;;;;;;;9.73;3.15;;;;;;;;;;4997094;28;20268;-74
2021/12/04 09:00:33;;;;;;;15.02;3.95;;;;;;;;;;4997135;28;20177;-73
2021/12/04 09:03:00;;;;;;;10.02;3.35;;;;;;;;;;4996913;28;20236;-73
2021/12/04 09:05:26;;;;;;;7.57;3.47;;;;;;;;;;4996829;28;20239;-73
2021/12/04 09:07:53;;;;;;;14.77;4.10;;;;;;;;;;4996557;28;20212;-74
2021/12/04 09:10:19;;;;;;;20.20;4.22;;;;;;;;;;4996565;28;20188;-74
2021/12/04 09:12:46;;;;;;;10.90;3.40;;;;;;;;;;4996547;28;20933;-74
2021/12/04 09:15:15;;;;;;;8.93;2.75;;;;;;;;;;4996525;28;20672;-74
2021/12/04 09:17:41;;;;;;;23.55;4.65;;;;;;;;;;4996486;28;20534;-73
2021/12/04 09:20:08;;;;;;;31.63;5.70;;;;;;;;;;4996266;28;20679;-73
2021/12/04 09:22:35;;;;;;;16.17;3.97;;;;;;;;;;4996231;28;20201;-73
2021/12/04 09:25:04;;;;;;;10.00;2.65;;;;;;;;;;4996024;28;20174;-73
2021/12/04 09:30:21;;;;;;;10.93;3.58;;;;;;;;;;4996049;28;20260;-76
2021/12/04 10:03:22;;;;;;;23.42;3.58;;;;;;;;;;4992835;28;20855;-73
2021/12/04 10:17:27;;;;;;;7.90;2.90;;;;;;;;;;4988281;28;20409;-76
2021/12/04 10:20:09;;;;;;;23.63;5.13;;;;;;;;;;4994106;28;20417;-79
2021/12/04 10:34:22;;;;;;;7.80;3.17;;;;;;;;;;4935138;29;20414;-79
2021/12/04 10:36:48;;;;;;;32.40;5.05;;;;;;;;;;4935324;29;20164;-78
2021/12/04 10:39:15;;;;;;;14.83;3.80;;;;;;;;;;4935563;29;20558;-78
2021/12/04 10:41:55;;;;;;;9.67;3.00;;;;;;;;;;4935371;29;20482;-78
2021/12/04 10:44:25;;;;;;;4.53;2.40;;;;;;;;;;4935713;29;20414;-78
2021/12/04 10:46:59;;;;;;;22.93;4.57;;;;;;;;;;4933753;29;20541;-76
2021/12/04 10:52:26;;;;;;;16.87;4.30;;;;;;;;;;4928905;29;20431;-77
2021/12/04 10:55:10;;;;;;;20.77;3.80;;;;;;;;;;4934085;29;20450;-76
2021/12/04 10:58:04;;;;;;;6.60;2.47;;;;;;;;;;4932633;29;20438;-76
2021/12/04 11:22:19;;;;;;;9.70;3.60;;;;;;;;;;4953489;29;20462;-76
2021/12/04 11:36:23;;;;;;;10.70;2.90;;;;;;;;;;4877271;29;20457;-73
2021/12/04 11:44:12;;;;;;;7.23;3.00;;;;;;;;;;4883510;29;20488;-73
2021/12/04 11:46:42;;;;;;;17.53;4.17;;;;;;;;;;4895876;29;20440;-73
2021/12/04 11:49:12;;;;;;;8.57;3.53;;;;;;;;;;4903583;29;20456;-73
2021/12/04 11:51:46;;;;;;;12.80;3.40;;;;;;;;;;4899373;29;20790;-73
2021/12/04 11:54:13;;;;;;;10.83;3.67;;;;;;;;;;4895548;29;20467;-73
2021/12/04 11:56:39;;;;;;;14.17;4.50;;;;;;;;;;4895929;29;20429;-73
2021/12/04 11:59:05;;;;;;;8.50;3.93;;;;;;;;;;4897902;29;20464;-73
2021/12/04 12:01:36;;;;;;;6.83;3.80;;;;;;;;;;4902558;29;20479;-73
2021/12/04 12:04:04;;;;;;;9.43;3.50;;;;;;;;;;4920856;29;20428;-73
2021/12/04 12:06:41;;;;;;;11.60;3.77;;;;;;;;;;4960155;28;20911;-73
2021/12/04 12:09:10;;;;;;;10.60;4.30;;;;;;;;;;5000125;28;20416;-73
2021/12/04 12:11:36;;;;;;;13.53;3.90;;;;;;;;;;5000865;28;20955;-73
2021/12/04 12:14:11;;;;;;;12.33;3.83;;;;;;;;;;5000227;28;20812;-73
2021/12/04 12:16:45;;;;;;;10.03;3.27;;;;;;;;;;5000435;28;20424;-76
2021/12/04 12:19:23;;;;;;;11.93;3.77;;;;;;;;;;4997632;28;20833;-76
2021/12/04 12:22:01;;;;;;;16.47;5.00;;;;;;;;;;5000307;28;20552;-76
2021/12/04 12:38:41;;;;;;;8.17;3.47;;;;;;;;;;5005476;28;21017;-76
2021/12/04 12:41:27;;;;;;;8.43;3.50;;;;;;;;;;5008873;28;20958;-75
2021/12/04 12:44:29;;;;;;;11.37;4.37;;;6.30;1.00;;;;;;5006371;28;20412;-75
2021/12/04 12:47:05;;;;;;;22.37;4.80;;;;;;;;;;4952017;29;20854;-75
2021/12/04 12:49:38;;;;;;;12.17;4.70;;;;;;;;;;4939956;29;20415;-76
2021/12/04 12:52:06;;;;;;;22.53;5.03;;;;;;;;;;4952549;29;20458;-77
2021/12/04 12:54:41;;;;;;;10.73;4.30;;;;;;;;;;4939569;29;20540;-76
2021/12/04 12:57:09;;;;;;;19.30;5.07;;;;;;;;;;4931724;29;20435;-76
2021/12/04 13:13:43;;;;;;;10.93;4.17;;;;;;;;;;4908995;29;20427;-76
2021/12/04 13:16:17;;;;;;;11.87;4.57;;;;;;;;;;4918046;29;21007;-74
2021/12/04 13:18:45;;;;;;;11.33;3.97;;;;;;;;;;4916759;29;20444;-74
2021/12/04 13:21:12;;;;;;;10.53;3.93;;;;;;;;;;4911795;29;20959;-74
2021/12/04 13:23:39;;;;;;;10.57;3.37;;;;;;;;;;4958804;28;20497;-74
2021/12/04 13:26:08;;;;;;;17.43;4.07;;;;;;;;;;4996109;28;20907;-74
2021/12/04 13:28:35;;;;;;;13.00;5.00;;;;;;;;;;4995764;28;20503;-74
2021/12/04 13:31:02;;;;;;;12.37;4.07;;;;;;;;;;4995909;28;20413;-74
2021/12/04 13:33:31;;;;;;;10.13;3.97;;;;;;;;;;4996033;28;20745;-78
2021/12/04 13:35:57;;;;;;;9.97;3.83;;;;;;;;;;4996640;28;20444;-76
2021/12/04 13:38:25;;;;;;;6.27;3.37;;;;;;;;;;4996488;28;20424;-75
2021/12/04 13:40:54;;;;;;;13.73;4.50;;;;;;;;;;4995818;28;20417;-77
2021/12/04 13:43:22;;;;;;;8.90;3.67;;;;;;;;;;4996477;28;20460;-77
2021/12/04 13:46:08;;;;;;;10.40;3.97;;;;;;;;;;4996617;28;20424;-76
2021/12/04 13:48:35;;;;;;;6.50;2.83;;;;;;;;;;4995506;28;20494;-73
2021/12/04 13:51:01;;;;;;;19.23;5.07;;;;;;;;;;4994030;28;20425;-72
2021/12/04 13:53:30;;;;;;;14.17;4.27;;;;;;;;;;4994808;28;20908;-73
2021/12/04 13:55:58;;;;;;;13.10;3.63;;;;;;;;;;5007808;28;20408;-72
2021/12/04 13:58:24;;;;;;;12.70;4.03;;;;;;;;;;5006587;28;20817;-72
2021/12/04 14:00:51;;;;;;;8.90;3.60;;;;;;;;;;4995988;28;20451;-73
2021/12/04 14:06:20;;;;;;;14.07;4.70;;;;;;;;;;4996031;28;20432;-76
2021/12/04 14:08:57;;;;;;;16.10;3.77;;;;;;;;;;4995989;28;20401;-77
2021/12/04 14:11:31;;;;;;;14.23;4.03;;;;;;;;;;4995871;28;20749;-77
2021/12/04 14:13:57;;;;;;;8.37;3.20;;;;;;;;;;4995910;28;20405;-77
2021/12/04 14:16:24;;;;;;;6.67;3.20;;;;;;;;;;4995979;28;20792;-77
2021/12/04 14:18:53;;;;;;;12.20;4.07;;;;;;;;;;4996125;28;20730;-77
2021/12/04 14:21:24;;;;;;;9.53;4.10;;;;;;;;;;4989769;28;20464;-77
2021/12/04 14:23:50;;;;;;;11.83;4.67;;;;;;;;;;4983903;28;20418;-78
2021/12/04 14:26:16;;;;;;;13.47;4.40;;;;;;;;;;4992394;28;20425;-78
2021/12/04 14:28:44;;;;;;;24.30;6.67;;;;;;;;;;4994358;28;20487;-77
2021/12/04 14:31:11;;;;;;;27.97;5.60;;;;;;;;;;4994129;28;20424;-77
2021/12/04 14:33:38;;;;;;;14.00;4.33;;;;;;;;;;4992003;28;20496;-77
2021/12/04 14:36:04;;;;;;;6.80;3.30;;;;;;;;;;4994645;28;20422;-77
2021/12/04 14:38:31;;;;;;;12.83;3.83;;;;;;;;;;4994992;28;20413;-76
2021/12/04 14:41:03;;;;;;;12.00;4.70;;;;;;;;;;4994674;28;20441;-76
2021/12/04 14:43:33;;;;;;;5.87;3.63;;;;;;;;;;4994382;28;20431;-77
2021/12/04 14:46:00;;;;;;;10.63;4.03;;;;;;;;;;4994153;28;20417;-76
2021/12/04 14:48:33;;;;;;;8.37;3.50;;;;;;;;;;4994560;28;20409;-74
2021/12/04 14:51:06;;;;;;;9.00;3.70;;;;;;;;;;4993940;28;20434;-74
2021/12/04 14:53:38;;;;;;;29.00;6.80;;;;;;;;;;4993252;28;20412;-71
2021/12/04 14:56:06;;;;;;;25.10;5.30;;;;;;;;;;4996291;28;20852;-73
2021/12/04 14:58:32;;;;;;;14.70;5.05;;;;;;;;;;4993657;28;20428;-73
2021/12/04 15:01:07;;;;;;;7.03;3.70;;;;;;;;;;4994044;28;20178;-74
2021/12/04 15:03:40;;;;;;;20.37;4.93;;;;;;;;;;4984316;28;20949;-71
2021/12/04 15:06:08;;;;;;;12.10;4.70;;;;;;;;;;4992553;28;20425;-72
2021/12/04 15:08:36;;;;;;;10.57;4.30;;;;;;;;;;4993834;28;20500;-72
2021/12/04 15:11:04;;;;;;;9.20;4.10;;;;;;;;;;4986281;28;20429;-72
2021/12/04 15:13:35;;;;;;;22.30;5.73;;;;;;;;;;4992804;28;20181;-72
2021/12/04 15:16:04;;;;;;;17.10;4.97;;;;;;;;;;4993513;28;20447;-72
2021/12/04 15:18:35;;;;;;;12.50;4.53;;;;;;;;;;4993613;28;20514;-72
2021/12/04 15:21:15;;;;;;;20.42;4.57;;;;;;;;;;4993458;28;20425;-73
2021/12/04 15:23:42;;;;;;;11.67;3.80;;;;;;;;;;4993273;28;20178;-74
2021/12/04 15:26:19;;;;;;;7.53;3.83;;;;;;;;;;4990440;28;20931;-72
2021/12/04 15:28:48;;;;;;;12.10;4.10;;;;;;;;;;4993491;28;20404;-73
2021/12/04 15:31:15;;;;;;;9.85;4.28;;;;;;;;;;4993508;28;20500;-73
2021/12/04 15:33:46;;;;;;;10.00;3.87;;;;;;;;;;4992501;28;20174;-74
2021/12/04 15:36:29;;;;;;;13.80;4.40;;;;;;;;;;4992574;28;20512;-74
2021/12/04 15:38:58;;;;;;;19.83;5.67;;;;;;;;;;4993434;28;20417;-72
2021/12/04 15:44:48;;;;;;;12.67;4.10;;;;;;;;;;4988817;28;20459;-72
2021/12/04 15:47:33;;;;;;;7.80;3.00;;;;;;;;;;4992930;28;20448;-72
2021/12/04 15:55:23;;;;;;;12.05;4.15;;;;;;;;;;4996218;28;20447;-73
2021/12/04 15:57:56;;;;;;;31.07;5.30;;;;;;;;;;4992354;28;20189;-74
2021/12/04 16:00:25;;;;;;;26.77;5.00;;;;;;;;;;4993004;28;20413;-74
2021/12/04 16:02:55;;;;;;;8.43;3.17;;;;;;;;;;4993000;28;20488;-72
2021/12/04 16:05:22;;;;;;;9.98;3.55;;;;;;;;;;4987394;28;20826;-78
2021/12/04 16:07:49;;;;;;;16.77;4.80;;;;;;;;;;4989276;28;20676;-78
2021/12/04 16:10:17;;;;;;;23.60;5.83;;;;;;;;;;4992550;28;20460;-78
2021/12/04 16:12:48;;;;;;;16.73;5.67;;;;;;;;;;4992968;28;20467;-80
2021/12/04 16:15:16;;;;;;;12.07;4.47;;;;;;;;;;4993209;28;20504;-81
2021/12/04 16:17:42;;;;;;;15.27;4.70;;;;;;;;;;4980436;28;20170;-80
2021/12/04 16:20:13;;;;;;;11.17;4.77;;;;;;;;;;4994600;28;20432;-80
2021/12/04 16:22:41;;;;;;;13.93;4.43;;;;;;;;;;4992567;28;20483;-77
2021/12/04 16:25:12;;;;;;;10.00;4.27;;;;;;;;;;4991942;28;20433;-78
2021/12/04 16:27:54;;;;;;;10.50;3.83;;;;;;;;;;4993213;28;20405;-79
2021/12/04 16:35:36;;;;;;;35.53;4.80;;;;;;;;;;4991803;28;20417;-77
2021/12/04 16:38:03;;;;;;;17.77;4.90;;;;;;;;;;4980829;28;20959;-75
2021/12/04 16:40:34;;;;;;;10.80;3.80;;;;;;;;;;4992782;28;20609;-76
2021/12/04 16:43:09;;;;;;;9.83;4.07;;;;;;;;;;4992731;28;20986;-76
2021/12/04 16:45:37;;;;;;;17.17;5.20;;;;;;;;;;4992574;28;20784;-77
2021/12/04 16:48:06;;;;;;;13.87;4.40;;;;;;;;;;4986747;28;20464;-76
2021/12/04 16:58:32;;;;;;;24.95;5.80;;;;;;;;;;4995934;28;20189;-76
2021/12/04 17:00:59;;;;;;;17.67;5.27;;;;;;;;;;4995125;28;20255;-76
2021/12/04 17:03:25;;;;;;;25.20;8.10;;;;;;;;;;4995493;28;20456;-78
2021/12/04 17:05:51;;;;;;;18.97;5.37;;;;;;;;;;4995864;28;20417;-79
2021/12/04 17:08:18;;;;;;;12.55;4.82;;;;;;;;;;4995936;28;20771;-78
2021/12/04 17:10:44;;;;;;;11.30;4.57;;;;;;;;;;4996047;28;20178;-76
2021/12/04 17:13:10;;;;;;;9.67;3.70;;;;;;;;;;4996059;28;20190;-76
2021/12/04 17:15:42;;;;;;;9.73;3.50;;;;;;;;;;4995385;28;20924;-76
2021/12/04 17:18:15;;;;;;;15.10;4.57;;;;;;;;;;4995487;28;20925;-74
2021/12/04 17:20:41;;;;;;;10.65;3.40;;;;;;;;;;4996314;28;20826;-77
2021/12/04 17:23:07;;;;;;;11.20;3.30;;;;;;;;;;4995677;28;20280;-77
2021/12/04 17:25:35;;;;;;;10.30;3.30;;;;;;;;;;4995549;28;20182;-77
2021/12/04 17:28:02;;;;;;;11.93;4.10;;;;;;;;;;4992834;28;20468;-76
2021/12/04 17:30:28;;;;;;;10.13;3.72;;;;;;;;;;4986120;28;20756;-76
2021/12/04 17:32:54;;;;;;;9.23;3.75;;;;;;;;;;4995392;28;20261;-77
2021/12/04 17:35:22;;;;;;;9.23;3.57;;;;;;;;;;4995938;28;20178;-73
2021/12/04 17:37:49;;;;;;;9.27;3.60;;;;;;;;;;4994806;28;20424;-72
2021/12/04 17:40:17;;;;;;;18.00;5.30;;;;;;;;;;4993467;28;20432;-72
2021/12/04 17:42:44;;;;;;;14.68;4.28;;;;;;;;;;4994010;28;20243;-72
2021/12/04 17:45:12;;;;;;;11.53;4.53;;;;;;;;;;4994509;28;20201;-74
2021/12/04 17:47:43;;;;;;;7.70;3.50;;;;;;;;;;4995106;28;20449;-73
2021/12/04 17:50:12;;;;;;;20.00;4.78;;;;;;;;;;4995401;28;20428;-73
2021/12/04 17:52:38;;;;;;;10.13;3.38;;;;;;;;;;4994727;28;20174;-71
2021/12/04 17:55:05;;;;;;;7.30;3.20;;;;;;;;;;4994184;28;20224;-72
2021/12/04 17:57:34;;;;;;;11.98;3.25;;;;;;;;;;4994080;28;20182;-72
2021/12/04 18:00:00;;;;;;;12.73;3.08;;;;;;;;;;4995322;28;20185;-72
2021/12/04 18:02:26;;;;;;;6.33;1.73;;;;;;;;;;4992043;28;20201;-72
2021/12/04 18:04:59;;;;;;;7.53;2.53;;;;;;;;;;4995296;28;20768;-73
2021/12/04 18:07:25;;;;;;;8.73;3.00;;;;;;;;;;4994380;28;20453;-74
2021/12/04 18:09:53;;;;;;;5.20;1.90;;;;;;;;;;4994489;28;20547;-73
2021/12/04 18:12:27;;;;;;;17.90;4.00;;;;;;;;;;4994721;28;20205;-72